createdAt,value
2023-04-06T00:04:45.118Z,8.37
2023-04-06T00:09:48.720Z,10.10
2023-04-06T00:14:50.814Z,6.90
2023-04-06T00:19:53.204Z,7.57
2023-04-06T00:24:57.166Z,6.90
2023-04-06T00:29:59.505Z,8.70
2023-04-06T00:35:01.691Z,9.73
2023-04-06T00:40:05.887Z,8.40
2023-04-06T00:45:09.310Z,9.70
2023-04-06T00:50:11.879Z,6.30
2023-04-06T00:55:15.621Z,12.07
2023-04-06T01:00:18.577Z,10.50
2023-04-06T01:05:21.370Z,10.43
2023-04-06T01:10:29.221Z,8.43
2023-04-06T01:15:32.508Z,8.03
2023-04-06T01:20:34.911Z,8.90
2023-04-06T01:25:39.187Z,8.97
2023-04-06T01:30:41.454Z,8.13
2023-04-06T01:35:44.094Z,8.37
2023-04-06T01:40:47.704Z,9.13
2023-04-06T01:45:49.847Z,9.00
2023-04-06T01:50:52.172Z,8.03
2023-04-06T01:55:55.548Z,9.10
2023-04-06T02:00:57.808Z,8.93
2023-04-06T02:06:00.207Z,7.13
2023-04-06T02:11:03.824Z,7.23
2023-04-06T02:16:06.005Z,9.13
2023-04-06T02:21:08.248Z,10.20
2023-04-06T02:26:11.641Z,11.40
2023-04-06T02:31:16.044Z,10.03
2023-04-06T02:36:18.357Z,7.43
2023-04-06T02:41:21.843Z,9.30
2023-04-06T02:46:24.066Z,9.10
2023-04-06T02:51:26.983Z,9.60
2023-04-06T02:56:30.451Z,11.40
2023-04-06T03:01:32.385Z,10.33
2023-04-06T03:06:34.555Z,11.73
2023-04-06T03:11:38.486Z,10.40
2023-04-06T03:16:40.473Z,10.73
2023-04-06T03:21:42.391Z,11.47
2023-04-06T03:26:46.000Z,9.13
2023-04-06T03:31:47.843Z,10.37
2023-04-06T03:37:02.922Z,7.53
2023-04-06T03:42:12.464Z,9.90
2023-04-06T03:47:14.512Z,8.03
2023-04-06T03:52:17.253Z,8.97
2023-04-06T03:57:20.870Z,8.30
2023-04-06T04:02:23.294Z,9.63
2023-04-06T04:07:25.700Z,9.60
2023-04-06T04:12:28.983Z,10.90
2023-04-06T04:17:31.167Z,13.63
2023-04-06T04:22:33.928Z,15.17
2023-04-06T04:27:37.698Z,10.40
2023-04-06T04:32:39.928Z,10.37
2023-04-06T04:37:42.631Z,12.17
2023-04-06T04:42:46.208Z,11.47
2023-04-06T04:47:48.393Z,11.33
2023-04-06T04:52:53.707Z,16.03
2023-04-06T04:57:57.605Z,16.37
2023-04-06T05:02:59.814Z,17.97
2023-04-06T05:08:02.473Z,11.30
2023-04-06T05:13:06.741Z,17.50
2023-04-06T05:18:09.006Z,15.07
2023-04-06T05:23:11.375Z,19.33
2023-04-06T05:28:15.409Z,22.30
2023-04-06T05:33:17.490Z,25.57
2023-04-06T05:38:19.811Z,14.37
2023-04-06T05:43:23.492Z,16.27
2023-04-06T05:48:26.219Z,14.53
2023-04-06T05:53:30.163Z,13.60
2023-04-06T05:58:34.007Z,16.67
2023-04-06T06:03:36.118Z,25.13
2023-04-06T06:08:37.938Z,19.90
2023-04-06T06:13:41.586Z,18.60
2023-04-06T06:18:43.809Z,26.80
2023-04-06T06:23:46.149Z,20.83
2023-04-06T06:28:49.927Z,16.27
2023-04-06T06:33:52.600Z,11.10
2023-04-06T06:38:55.054Z,10.53
2023-04-06T06:43:58.954Z,12.63
2023-04-06T06:49:01.688Z,14.67
2023-04-06T06:54:04.210Z,8.23
2023-04-06T06:59:08.129Z,13.30
2023-04-06T07:04:11.243Z,9.43
2023-04-06T07:09:13.796Z,10.87
2023-04-06T07:14:18.037Z,11.37
2023-04-06T07:19:20.120Z,13.27
2023-04-06T07:24:22.636Z,15.87
2023-04-06T07:29:26.239Z,16.53
2023-04-06T07:34:28.520Z,12.33
2023-04-06T07:39:31.335Z,11.77
2023-04-06T07:44:35.127Z,7.77
2023-04-06T07:49:37.418Z,10.30
2023-04-06T07:54:40.223Z,7.70
2023-04-06T07:59:44.049Z,6.63
2023-04-06T08:04:47.317Z,10.03
2023-04-06T08:09:49.611Z,6.93
2023-04-06T08:14:53.279Z,9.10
2023-04-06T08:19:55.447Z,7.10
2023-04-06T08:24:57.791Z,8.20
2023-04-06T08:30:01.813Z,8.47
2023-04-06T08:35:04.533Z,6.97
2023-04-06T08:40:07.961Z,8.93
2023-04-06T08:45:13.236Z,7.50
2023-04-06T08:50:16.084Z,6.53
2023-04-06T08:55:18.631Z,8.43
2023-04-06T09:00:23.197Z,6.67
2023-04-06T09:05:27.836Z,6.03
2023-04-06T09:10:31.283Z,9.87
2023-04-06T09:15:34.910Z,10.07
2023-04-06T09:20:37.178Z,6.90
2023-04-06T09:25:39.577Z,8.73
2023-04-06T09:30:51.988Z,9.70
2023-04-06T09:35:54.315Z,10.02
2023-04-06T09:41:01.300Z,7.70
2023-04-06T09:46:07.054Z,6.95
2023-04-06T09:51:11.830Z,8.25
2023-04-06T09:56:19.276Z,10.63
2023-04-06T10:01:24.750Z,6.05
2023-04-06T10:06:30.786Z,8.05
2023-04-06T10:11:33.807Z,7.50
2023-04-06T10:16:38.101Z,8.02
2023-04-06T10:21:42.350Z,8.88
2023-04-06T10:26:44.990Z,6.18
2023-04-06T10:31:51.968Z,9.35
2023-04-06T10:36:54.226Z,10.48
2023-04-06T10:41:56.812Z,7.72
2023-04-06T10:47:02.783Z,6.30
2023-04-06T10:52:05.749Z,6.45
2023-04-06T10:57:07.958Z,7.00
2023-04-06T11:02:21.079Z,9.48
2023-04-06T11:07:26.217Z,7.80
2023-04-06T11:12:30.147Z,7.10
2023-04-06T11:17:34.798Z,9.85
2023-04-06T11:22:37.262Z,6.90
2023-04-06T11:27:39.385Z,6.47
2023-04-06T11:32:44.677Z,15.80
2023-04-06T11:37:47.044Z,5.88
2023-04-06T11:42:55.048Z,9.00
2023-04-06T11:48:02.635Z,7.68
2023-04-06T11:53:05.240Z,8.60
2023-04-06T11:58:08.218Z,6.55
2023-04-06T12:03:11.816Z,8.35
2023-04-06T12:08:13.982Z,8.55
2023-04-06T12:13:16.750Z,7.13
2023-04-06T12:18:20.374Z,9.63
2023-04-06T12:23:22.446Z,7.85
2023-04-06T12:28:28.077Z,5.72
2023-04-06T12:33:31.716Z,7.07
2023-04-06T12:38:33.854Z,8.98
2023-04-06T12:43:35.874Z,7.32
2023-04-06T12:48:40.369Z,6.88
2023-04-06T12:53:43.324Z,7.32
2023-04-06T12:58:45.547Z,7.45
2023-04-06T13:03:49.295Z,7.63
2023-04-06T13:08:52.052Z,11.02
2023-04-06T13:13:54.090Z,9.20
2023-04-06T13:18:57.850Z,7.85
2023-04-06T13:23:59.908Z,10.40
2023-04-06T13:29:03.713Z,8.88
2023-04-06T13:34:07.546Z,8.48
2023-04-06T13:39:09.627Z,6.28
2023-04-06T13:44:12.053Z,7.65
2023-04-06T13:49:16.677Z,6.93
2023-04-06T13:54:19.245Z,6.68
2023-04-06T13:59:21.723Z,12.18
2023-04-06T14:04:25.200Z,7.57
2023-04-06T14:09:27.438Z,8.63
2023-04-06T14:14:29.930Z,7.93
2023-04-06T14:19:33.819Z,7.47
2023-04-06T14:24:36.389Z,8.02
2023-04-06T14:29:39.142Z,7.20
2023-04-06T14:34:43.798Z,8.88
2023-04-06T14:39:46.362Z,8.98
2023-04-06T14:44:49.886Z,6.78
2023-04-06T14:49:54.531Z,9.40
2023-04-06T14:54:56.778Z,10.02
2023-04-06T14:59:58.650Z,11.02
2023-04-06T15:05:02.494Z,10.70
2023-04-06T15:10:05.014Z,8.63
2023-04-06T15:15:08.549Z,10.93
2023-04-06T15:20:13.085Z,8.35
2023-04-06T15:25:15.739Z,8.32
2023-04-06T15:30:18.164Z,11.32
2023-04-06T15:35:22.142Z,11.98
2023-04-06T15:40:24.300Z,21.42
2023-04-06T15:45:27.569Z,11.55
2023-04-06T15:50:31.703Z,10.60
2023-04-06T15:55:33.734Z,12.07
2023-04-06T16:00:35.908Z,12.50
2023-04-06T16:05:48.964Z,13.15
2023-04-06T16:11:01.928Z,9.70
2023-04-06T16:16:05.177Z,12.27
2023-04-06T16:21:09.010Z,14.15
2023-04-06T16:26:14.420Z,11.80
2023-04-06T16:31:22.281Z,10.65
2023-04-06T16:36:27.729Z,15.52
2023-04-06T16:41:31.231Z,14.57
2023-04-06T16:46:34.258Z,14.23
2023-04-06T16:51:38.081Z,13.90
2023-04-06T16:56:40.373Z,12.20
2023-04-06T17:01:42.966Z,13.93
2023-04-06T17:06:46.696Z,13.67
2023-04-06T17:11:48.954Z,11.07
2023-04-06T17:16:51.118Z,14.07
2023-04-06T17:21:55.498Z,12.33
2023-04-06T17:26:58.065Z,13.90
2023-04-06T17:32:01.267Z,15.33
2023-04-06T17:37:04.886Z,18.43
2023-04-06T17:42:07.094Z,12.07
2023-04-06T17:47:09.748Z,11.60
2023-04-06T17:52:13.351Z,12.90
2023-04-06T17:57:16.026Z,12.93
2023-04-06T18:02:20.226Z,12.93
2023-04-06T18:07:24.351Z,13.77
2023-04-06T18:12:26.628Z,12.60
2023-04-06T18:17:29.310Z,14.37
2023-04-06T18:22:36.877Z,19.70
2023-04-06T18:27:39.255Z,14.93
2023-04-06T18:32:42.035Z,13.83
2023-04-06T18:37:46.431Z,12.70
2023-04-06T18:42:48.802Z,13.90
2023-04-06T18:47:51.733Z,16.00
2023-04-06T18:52:55.348Z,16.33
2023-04-06T18:57:58.979Z,13.53
2023-04-06T19:03:02.666Z,14.47
2023-04-06T19:08:07.086Z,10.30
2023-04-06T19:13:09.750Z,13.90
2023-04-06T19:18:12.144Z,12.97
2023-04-06T19:23:16.816Z,15.33
2023-04-06T19:28:19.476Z,13.43
2023-04-06T19:33:21.923Z,18.07
2023-04-06T19:39:08.168Z,17.50
2023-04-06T19:44:27.111Z,18.13
2023-04-06T19:49:32.268Z,18.17
2023-04-06T19:54:47.198Z,23.77
2023-04-06T19:59:51.196Z,18.07
2023-04-06T20:04:53.509Z,15.20
2023-04-06T20:09:55.881Z,20.37
2023-04-06T20:14:59.348Z,15.10
2023-04-06T20:20:01.551Z,13.57
2023-04-06T20:25:04.128Z,9.50
2023-04-06T20:30:09.800Z,12.50
2023-04-06T20:35:12.175Z,10.17
2023-04-06T20:40:14.829Z,29.50
2023-04-06T20:45:19.177Z,8.57
2023-04-06T20:50:21.619Z,7.27
2023-04-06T20:55:23.974Z,7.70
2023-04-06T21:00:27.531Z,6.20
2023-04-06T21:05:30.244Z,7.20
2023-04-06T21:10:32.648Z,11.33
2023-04-06T21:15:36.521Z,7.77
2023-04-06T21:20:40.035Z,11.63
2023-04-06T21:25:42.887Z,10.63
2023-04-06T21:30:47.252Z,5.27
2023-04-06T21:35:49.893Z,9.50
2023-04-06T21:41:01.054Z,5.63
2023-04-06T21:46:05.135Z,7.13
2023-04-06T21:51:07.692Z,4.67
2023-04-06T21:56:10.758Z,7.50
2023-04-06T22:01:14.776Z,5.57
2023-04-06T22:06:16.762Z,5.03
2023-04-06T22:11:18.791Z,4.60
2023-04-06T22:16:22.858Z,3.80
2023-04-06T22:21:25.112Z,5.60
2023-04-06T22:26:27.405Z,5.70
2023-04-06T22:31:31.019Z,5.43
2023-04-06T22:36:33.182Z,5.00
2023-04-06T22:41:35.076Z,6.50
2023-04-06T22:46:39.117Z,6.43
2023-04-06T22:51:42.303Z,4.73
2023-04-06T22:56:44.708Z,4.10
2023-04-06T23:01:48.120Z,6.00
2023-04-06T23:06:50.062Z,4.43
2023-04-06T23:11:52.550Z,4.27
2023-04-06T23:16:56.467Z,5.67
2023-04-06T23:21:58.698Z,4.07
2023-04-06T23:27:01.048Z,6.27
2023-04-06T23:32:04.980Z,3.33
2023-04-06T23:37:07.396Z,3.77
2023-04-06T23:42:09.629Z,4.90
2023-04-06T23:47:13.367Z,5.00
2023-04-06T23:52:15.746Z,3.50
2023-04-06T23:57:17.981Z,5.00
